Time,TemperatureF,DewpointF,PressureIn,WindDirection,WindDirectionDegrees,WindSpeedMPH,WindSpeedGustMPH,Humidity,HourlyPrecipIn,Conditions,Clouds,dailyrainin,SolarRadiationWatts/m^2,SoftwareType,DateUTC
2013-10-02 00:08:00,59.7,49.0,29.93,West,266,1.0,3.0,69,0.00,,,0.00,0,weatherlink.com 1.10,2013-10-02 07:08:00,
2013-10-02 00:23:00,59.6,49.0,29.93,West,270,2.0,4.0,69,0.00,,,0.00,0,weatherlink.com 1.10,2013-10-02 07:23:00,
2013-10-02 00:38:00,59.2,49.0,29.93,West,273,2.0,3.0,70,0.00,,,0.00,0,weatherlink.com 1.10,2013-10-02 07:38:00,
2013-10-02 00:53:00,58.7,49.0,29.93,West,273,0.0,2.0,71,0.00,,,0.00,0,weatherlink.com 1.10,2013-10-02 07:53:00,
2013-10-02 01:08:00,58.2,49.0,29.93,West,273,2.0,2.0,72,0.00,,,0.00,0,weatherlink.com 1.10,2013-10-02 08:08:00,
2013-10-02 01:23:00,58.3,49.0,29.93,West,277,0.0,3.0,72,0.00,,,0.00,0,weatherlink.com 1.10,2013-10-02 08:23:00,
2013-10-02 01:38:00,57.7,49.0,29.93,West,277,0.0,1.0,73,0.00,,,0.00,0,weatherlink.com 1.10,2013-10-02 08:38:00,
2013-10-02 01:53:00,57.0,49.0,29.93,West,277,1.0,2.0,75,0.00,,,0.00,0,weatherlink.com 1.10,2013-10-02 08:53:00,
2013-10-02 02:08:00,56.6,49.0,29.93,West,277,0.0,1.0,76,0.00,,,0.00,0,weatherlink.com 1.10,2013-10-02 09:08:00,
2013-10-02 02:23:00,55.2,49.0,29.93,West,277,0.0,1.0,79,0.00,,,0.00,0,weatherlink.com 1.10,2013-10-02 09:23:00,
2013-10-02 02:38:00,57.2,49.0,29.93,West,277,0.0,1.0,75,0.00,,,0.00,0,weatherlink.com 1.10,2013-10-02 09:38:00,
2013-10-02 02:53:00,56.8,49.0,29.92,West,277,0.0,1.0,76,0.00,,,0.00,0,weatherlink.com 1.10,2013-10-02 09:53:00,
2013-10-02 03:08:00,55.7,48.0,29.92,West,277,0.0,0.0,75,0.00,,,0.00,0,weatherlink.com 1.10,2013-10-02 10:08:00,
2013-10-02 03:23:00,53.6,48.0,29.92,West,277,2.0,3.0,82,0.00,,,0.00,0,weatherlink.com 1.10,2013-10-02 10:23:00,
2013-10-02 03:38:00,54.9,49.0,29.92,West,277,0.0,2.0,81,0.00,,,0.00,0,weatherlink.com 1.10,2013-10-02 10:38:00,
2013-10-02 03:53:00,55.1,48.0,29.92,West,277,0.0,2.0,78,0.00,,,0.00,0,weatherlink.com 1.10,2013-10-02 10:53:00,
2013-10-02 04:08:00,54.6,48.0,29.92,West,277,0.0,1.0,79,0.00,,,0.00,0,weatherlink.com 1.10,2013-10-02 11:08:00,
2013-10-02 04:23:00,55.3,49.0,29.93,West,277,1.0,2.0,80,0.00,,,0.00,0,weatherlink.com 1.10,2013-10-02 11:23:00,
2013-10-02 04:38:00,55.8,49.0,29.92,West,277,1.0,1.0,79,0.00,,,0.00,0,weatherlink.com 1.10,2013-10-02 11:38:00,
2013-10-02 04:53:00,54.6,49.0,29.93,West,277,2.0,3.0,81,0.00,,,0.00,0,weatherlink.com 1.10,2013-10-02 11:53:00,
2013-10-02 05:08:00,55.0,49.0,29.93,West,274,2.0,3.0,80,0.00,,,0.00,0,weatherlink.com 1.10,2013-10-02 12:08:00,
2013-10-02 05:23:00,56.0,50.0,29.93,West,269,3.0,4.0,79,0.00,,,0.00,0,weatherlink.com 1.10,2013-10-02 12:23:00,
2013-10-02 05:38:00,56.3,50.0,29.94,West,281,4.0,4.0,78,0.00,,,0.00,0,weatherlink.com 1.10,2013-10-02 12:38:00,
2013-10-02 05:53:00,56.3,50.0,29.94,West,279,1.0,3.0,78,0.00,,,0.00,0,weatherlink.com 1.10,2013-10-02 12:53:00,
2013-10-02 06:08:00,56.2,49.0,29.94,West,279,0.0,1.0,77,0.00,,,0.00,0,weatherlink.com 1.10,2013-10-02 13:08:00,
2013-10-02 06:23:00,55.7,49.0,29.94,West,279,1.0,2.0,78,0.00,,,0.00,0,weatherlink.com 1.10,2013-10-02 13:23:00,
2013-10-02 06:38:00,55.1,49.0,29.95,West,279,0.0,2.0,79,0.00,,,0.00,0,weatherlink.com 1.10,2013-10-02 13:38:00,
2013-10-02 06:53:00,54.1,48.0,29.95,West,279,1.0,2.0,80,0.00,,,0.00,0,weatherlink.com 1.10,2013-10-02 13:53:00,
2013-10-02 07:08:00,53.1,48.0,29.95,West,279,0.0,1.0,82,0.00,,,0.00,0,weatherlink.com 1.10,2013-10-02 14:08:00,
2013-10-02 07:23:00,52.6,48.0,29.95,West,279,0.0,2.0,84,0.00,,,0.00,18,weatherlink.com 1.10,2013-10-02 14:23:00,
2013-10-02 07:38:00,52.6,48.0,29.96,West,279,0.0,2.0,85,0.00,,,0.00,26,weatherlink.com 1.10,2013-10-02 14:38:00,
2013-10-02 07:53:00,52.8,48.0,29.96,West,279,0.0,1.0,85,0.00,,,0.00,25,weatherlink.com 1.10,2013-10-02 14:53:00,
2013-10-02 08:08:00,53.3,49.0,29.96,West,279,0.0,2.0,84,0.00,,,0.00,51,weatherlink.com 1.10,2013-10-02 15:08:00,
2013-10-02 08:23:00,53.7,49.0,29.97,West,279,0.0,1.0,83,0.00,,,0.00,47,weatherlink.com 1.10,2013-10-02 15:23:00,
2013-10-02 08:38:00,54.3,49.0,29.98,West,279,0.0,1.0,82,0.00,,,0.00,35,weatherlink.com 1.10,2013-10-02 15:38:00,
2013-10-02 08:53:00,54.9,50.0,29.98,West,279,0.0,2.0,82,0.00,,,0.00,63,weatherlink.com 1.10,2013-10-02 15:53:00,
2013-10-02 09:08:00,56.2,50.0,29.98,West,279,0.0,1.0,80,0.00,,,0.00,269,weatherlink.com 1.10,2013-10-02 16:08:00,
2013-10-02 09:24:00,57.9,51.0,29.98,West,279,0.0,1.0,77,0.00,,,0.00,429,weatherlink.com 1.10,2013-10-02 16:24:00,
2013-10-02 09:39:00,61.1,51.0,29.98,West,279,0.0,1.0,70,0.00,,,0.00,476,weatherlink.com 1.10,2013-10-02 16:39:00,
2013-10-02 09:54:00,62.6,50.0,29.99,West,281,0.0,3.0,64,0.00,,,0.00,517,weatherlink.com 1.10,2013-10-02 16:54:00,
2013-10-02 10:09:00,63.8,50.0,29.99,West,274,2.0,3.0,61,0.00,,,0.00,557,weatherlink.com 1.10,2013-10-02 17:09:00,
2013-10-02 10:24:00,63.9,50.0,29.99,West,279,2.0,5.0,62,0.00,,,0.00,594,weatherlink.com 1.10,2013-10-02 17:24:00,
2013-10-02 10:39:00,66.9,51.0,29.99,West,279,2.0,4.0,56,0.00,,,0.00,626,weatherlink.com 1.10,2013-10-02 17:39:00,
2013-10-02 10:54:00,66.6,51.0,29.99,West,277,1.0,3.0,58,0.00,,,0.00,657,weatherlink.com 1.10,2013-10-02 17:54:00,
2013-10-02 11:09:00,68.4,52.0,29.99,West,275,0.0,4.0,57,0.00,,,0.00,682,weatherlink.com 1.10,2013-10-02 18:09:00,
2013-10-02 11:24:00,67.9,52.0,29.99,West,280,1.0,4.0,57,0.00,,,0.00,703,weatherlink.com 1.10,2013-10-02 18:24:00,
2013-10-02 11:39:00,68.0,52.0,29.99,West,275,4.0,4.0,58,0.00,,,0.00,722,weatherlink.com 1.10,2013-10-02 18:39:00,
2013-10-02 11:54:00,70.3,53.0,29.98,West,272,4.0,4.0,55,0.00,,,0.00,728,weatherlink.com 1.10,2013-10-02 18:54:00,
2013-10-02 12:09:00,69.6,53.0,29.98,West,279,3.0,6.0,56,0.00,,,0.00,740,weatherlink.com 1.10,2013-10-02 19:09:00,
2013-10-02 12:24:00,69.8,53.0,29.98,West,277,0.0,5.0,55,0.00,,,0.00,199,weatherlink.com 1.10,2013-10-02 19:24:00,
2013-10-02 12:39:00,70.4,53.0,29.97,West,275,0.0,4.0,55,0.00,,,0.00,206,weatherlink.com 1.10,2013-10-02 19:39:00,
2013-10-02 12:54:00,71.1,53.0,29.96,West,277,0.0,4.0,53,0.00,,,0.00,97,weatherlink.com 1.10,2013-10-02 19:54:00,
2013-10-02 13:09:00,71.5,53.0,29.96,West,275,1.0,2.0,52,0.00,,,0.00,109,weatherlink.com 1.10,2013-10-02 20:09:00,
2013-10-02 13:24:00,72.7,52.0,29.95,ENE,65,0.0,2.0,49,0.00,,,0.00,56,weatherlink.com 1.10,2013-10-02 20:24:00,
2013-10-02 13:39:00,72.0,52.0,29.95,WNW,283,3.0,3.0,49,0.00,,,0.00,162,weatherlink.com 1.10,2013-10-02 20:39:00,
2013-10-02 13:54:00,71.5,52.0,29.94,WSW,242,0.0,4.0,50,0.00,,,0.00,322,weatherlink.com 1.10,2013-10-02 20:54:00,
2013-10-02 14:09:00,71.1,51.0,29.94,West,264,0.0,5.0,50,0.00,,,0.00,46,weatherlink.com 1.10,2013-10-02 21:09:00,
2013-10-02 14:24:00,71.6,52.0,29.94,West,269,0.0,5.0,50,0.00,,,0.00,53,weatherlink.com 1.10,2013-10-02 21:24:00,
2013-10-02 14:39:00,71.3,51.0,29.94,West,270,2.0,4.0,49,0.00,,,0.00,35,weatherlink.com 1.10,2013-10-02 21:39:00,
2013-10-02 14:54:00,71.1,51.0,29.94,SSE,150,0.0,3.0,49,0.00,,,0.00,30,weatherlink.com 1.10,2013-10-02 21:54:00,
2013-10-02 15:09:00,71.1,50.0,29.93,West,270,0.0,4.0,48,0.00,,,0.00,30,weatherlink.com 1.10,2013-10-02 22:09:00,
2013-10-02 15:24:00,71.0,50.0,29.93,WNW,285,0.0,4.0,47,0.00,,,0.00,28,weatherlink.com 1.10,2013-10-02 22:24:00,
2013-10-02 15:39:00,71.2,48.0,29.93,West,280,0.0,4.0,44,0.00,,,0.00,28,weatherlink.com 1.10,2013-10-02 22:39:00,
2013-10-02 15:54:00,70.3,48.0,29.93,West,273,0.0,4.0,45,0.00,,,0.00,26,weatherlink.com 1.10,2013-10-02 22:54:00,
2013-10-02 16:09:00,69.9,48.0,29.93,West,269,1.0,5.0,45,0.00,,,0.00,25,weatherlink.com 1.10,2013-10-02 23:09:00,
2013-10-02 16:24:00,70.2,47.0,29.93,West,275,1.0,4.0,44,0.00,,,0.00,25,weatherlink.com 1.10,2013-10-02 23:24:00,
2013-10-02 16:39:00,70.3,47.0,29.93,West,278,2.0,4.0,43,0.00,,,0.00,116,weatherlink.com 1.10,2013-10-02 23:39:00,
2013-10-02 16:54:00,70.0,47.0,29.93,West,272,2.0,5.0,44,0.00,,,0.00,23,weatherlink.com 1.10,2013-10-02 23:54:00,
2013-10-02 17:09:00,69.9,47.0,29.93,West,276,2.0,5.0,44,0.00,,,0.00,214,weatherlink.com 1.10,2013-10-03 00:09:00,
2013-10-02 17:24:00,69.7,46.0,29.93,West,272,0.0,6.0,43,0.00,,,0.00,51,weatherlink.com 1.10,2013-10-03 00:24:00,
2013-10-02 17:39:00,69.3,46.0,29.93,West,275,0.0,3.0,44,0.00,,,0.00,21,weatherlink.com 1.10,2013-10-03 00:39:00,
2013-10-02 17:54:00,67.7,47.0,29.94,West,275,1.0,3.0,47,0.00,,,0.00,16,weatherlink.com 1.10,2013-10-03 00:54:00,
2013-10-02 18:09:00,66.7,46.0,29.94,West,275,0.0,2.0,48,0.00,,,0.00,16,weatherlink.com 1.10,2013-10-03 01:09:00,
2013-10-02 18:24:00,65.8,47.0,29.94,West,275,0.0,1.0,51,0.00,,,0.00,14,weatherlink.com 1.10,2013-10-03 01:24:00,
2013-10-02 18:39:00,65.2,47.0,29.94,West,275,0.0,2.0,53,0.00,,,0.00,5,weatherlink.com 1.10,2013-10-03 01:39:00,
2013-10-02 18:54:00,64.6,46.0,29.94,West,275,3.0,3.0,52,0.00,,,0.00,0,weatherlink.com 1.10,2013-10-03 01:54:00,
2013-10-02 19:09:00,63.7,46.0,29.94,West,273,0.0,4.0,53,0.00,,,0.00,0,weatherlink.com 1.10,2013-10-03 02:09:00,
2013-10-02 19:25:00,62.9,46.0,29.94,West,273,2.0,2.0,54,0.00,,,0.00,0,weatherlink.com 1.10,2013-10-03 02:25:00,
2013-10-02 19:40:00,62.2,45.0,29.95,West,274,1.0,3.0,53,0.00,,,0.00,0,weatherlink.com 1.10,2013-10-03 02:40:00,
2013-10-02 19:55:00,61.8,44.0,29.95,West,275,3.0,4.0,53,0.00,,,0.00,0,weatherlink.com 1.10,2013-10-03 02:55:00,
2013-10-02 20:10:00,61.3,45.0,29.95,West,269,1.0,4.0,55,0.00,,,0.00,0,weatherlink.com 1.10,2013-10-03 03:10:00,
2013-10-02 20:25:00,60.1,45.0,29.95,West,269,0.0,2.0,58,0.00,,,0.00,0,weatherlink.com 1.10,2013-10-03 03:25:00,
2013-10-02 20:40:00,59.6,45.0,29.95,West,269,0.0,2.0,59,0.00,,,0.00,0,weatherlink.com 1.10,2013-10-03 03:40:00,
2013-10-02 20:55:00,58.4,45.0,29.96,West,269,0.0,1.0,62,0.00,,,0.00,0,weatherlink.com 1.10,2013-10-03 03:55:00,
2013-10-02 21:10:00,57.4,44.0,29.97,West,269,0.0,1.0,62,0.00,,,0.00,0,weatherlink.com 1.10,2013-10-03 04:10:00,
2013-10-02 21:25:00,56.3,45.0,29.98,West,269,0.0,0.0,65,0.00,,,0.00,0,weatherlink.com 1.10,2013-10-03 04:25:00,
2013-10-02 21:40:00,56.3,44.0,29.98,West,269,0.0,1.0,64,0.00,,,0.00,0,weatherlink.com 1.10,2013-10-03 04:40:00,
2013-10-02 21:55:00,55.8,44.0,29.98,West,269,0.0,1.0,65,0.00,,,0.00,0,weatherlink.com 1.10,2013-10-03 04:55:00,
2013-10-02 22:10:00,56.0,44.0,29.98,West,269,0.0,0.0,64,0.00,,,0.00,0,weatherlink.com 1.10,2013-10-03 05:10:00,
2013-10-02 22:25:00,58.1,44.0,29.98,West,274,3.0,3.0,60,0.00,,,0.00,0,weatherlink.com 1.10,2013-10-03 05:25:00,
2013-10-02 22:40:00,58.5,44.0,30.00,West,279,3.0,5.0,58,0.00,,,0.00,0,weatherlink.com 1.10,2013-10-03 05:40:00,
2013-10-02 22:55:00,58.7,43.0,29.98,WNW,282,2.0,11.0,56,0.00,,,0.00,0,weatherlink.com 1.10,2013-10-03 05:55:00,
2013-10-02 23:10:00,58.8,42.0,29.98,West,269,4.0,11.0,54,0.00,,,0.00,0,weatherlink.com 1.10,2013-10-03 06:10:00,
2013-10-02 23:25:00,58.3,42.0,29.97,West,263,4.0,7.0,55,0.00,,,0.00,0,weatherlink.com 1.10,2013-10-03 06:25:00,
2013-10-02 23:40:00,57.6,42.0,29.99,West,280,6.0,8.0,56,0.00,,,0.00,0,weatherlink.com 1.10,2013-10-03 06:40:00,
2013-10-02 23:55:00,57.8,42.0,29.99,West,269,5.0,10.0,56,0.00,,,0.00,0,weatherlink.com 1.10,2013-10-03 06:55:00,